Time;durP1;ratioP1;P1;durP2;ratioP2;P2;SDS_P1;SDS_P2;PMS_P1;PMS_P2;Temp;Humidity;BMP_temperature;BMP_pressure;BME280_temperature;BME280_humidity;BME280_pressure;Samples;Min_cycle;Max_cycle;Signal;HPM_P1;HPM_P2
2022/12/17 13:06:07;;;;;;;26.55;8.90;;;;;;;;;;5013371;28;20068;-68
2022/12/17 13:08:32;;;;;;;45.40;17.23;;;;;;;;;;5013548;28;20041;-68
2022/12/17 13:11:08;;;;;;;37.67;14.15;;;;;;;;;;5012045;28;20025;-68
2022/12/17 13:13:34;;;;;;;33.22;10.02;;;;;;;;;;5002193;28;20025;-68
2022/12/17 13:16:21;;;;;;;13.73;8.45;;;;;;;;;;5010473;28;20586;-68
2022/12/17 13:18:47;;;;;;;29.33;11.65;;;;;;;;;;5012658;28;20022;-68
2022/12/17 13:21:15;;;;;;;15.40;6.97;;;;;;;;;;5016785;28;20072;-68
2022/12/17 13:23:40;;;;;;;23.08;8.25;;;;;;;;;;5013740;28;20088;-68
2022/12/17 13:26:16;;;;;;;22.77;8.48;;;;;;;;;;5010802;28;20401;-68
2022/12/17 13:28:43;;;;;;;34.78;10.90;;;;;;;;;;5000191;28;20386;-68
2022/12/17 13:31:20;;;;;;;33.45;13.32;;;;;;;;;;4997852;28;20363;-68
2022/12/17 13:33:45;;;;;;;22.63;10.02;;;;;;;;;;5011238;28;20045;-68
2022/12/17 13:36:16;;;;;;;36.10;13.15;;;;;;;;;;5010825;28;20049;-68
2022/12/17 13:38:42;;;;;;;40.90;15.32;;;;;;;;;;5010600;28;20064;-68
2022/12/17 13:41:08;;;;;;;15.95;8.43;;;;;;;;;;5002710;28;20014;-69
2022/12/17 13:43:38;;;;;;;21.25;9.77;;;;;;;;;;5004706;28;20096;-68
2022/12/17 13:46:03;;;;;;;25.90;9.48;;;;;;;;;;5013367;28;20014;-68
2022/12/17 13:48:29;;;;;;;27.45;9.32;;;;;;;;;;5012730;28;20108;-68
2022/12/17 13:50:59;;;;;;;29.50;12.45;;;;;;;;;;5010868;28;20033;-69
2022/12/17 13:53:24;;;;;;;23.23;7.85;;;;;;;;;;5007936;28;20015;-68
2022/12/17 13:55:50;;;;;;;25.48;11.55;;;;;;;;;;5002723;28;20033;-69
2022/12/17 13:58:26;;;;;;;27.73;8.75;;;;;;;;;;5004020;28;20056;-68
2022/12/17 14:01:02;;;;;;;34.67;12.65;;;;;;;;;;5012344;28;20032;-68
2022/12/17 14:03:27;;;;;;;27.70;9.32;;;;;;;;;;5011538;28;20098;-68
2022/12/17 14:05:52;;;;;;;19.83;7.90;;;;;;;;;;5004984;28;20105;-68
2022/12/17 14:08:19;;;;;;;16.95;5.25;;;;;;;;;;4997309;28;20434;-70
2022/12/17 14:10:48;;;;;;;31.23;12.07;;;;;;;;;;4999176;28;20433;-68
2022/12/17 14:13:14;;;;;;;19.88;7.30;;;;;;;;;;5001148;28;20026;-68
2022/12/17 14:15:51;;;;;;;23.88;8.57;;;;;;;;;;4998313;28;20048;-68
2022/12/17 14:18:18;;;;;;;19.70;7.43;;;;;;;;;;5001834;28;20052;-69
2022/12/17 14:20:44;;;;;;;25.48;9.77;;;;;;;;;;5000272;28;20022;-68
2022/12/17 14:23:18;;;;;;;20.23;9.13;;;;;;;;;;5001775;28;20025;-68
2022/12/17 14:25:43;;;;;;;21.48;9.10;;;;;;;;;;5003437;28;20079;-68
2022/12/17 14:28:22;;;;;;;32.15;10.50;;;;;;;;;;5003910;28;20464;-68
2022/12/17 14:30:48;;;;;;;23.95;7.57;;;;;;;;;;4996814;28;20030;-68
2022/12/17 14:33:29;;;;;;;9.65;5.50;;;;;;;;;;4998168;28;20400;-68
2022/12/17 14:35:55;;;;;;;37.63;10.00;;;;;;;;;;4995468;28;20014;-68
2022/12/17 14:38:20;;;;;;;32.08;10.38;;;;;;;;;;4999914;28;20014;-68
2022/12/17 14:40:46;;;;;;;22.00;10.13;;;;;;;;;;4998382;28;20097;-68
2022/12/17 14:43:12;;;;;;;22.00;7.05;;;;;;;;;;5004799;28;20471;-68
2022/12/17 14:46:19;;;;;;;23.33;8.70;;;;;;;;;;4997239;28;20053;-68
2022/12/17 14:48:59;;;;;;;42.17;15.20;;;;;;;;;;4997644;28;20036;-68
2022/12/17 14:51:19;;;;;;;14.25;7.10;;;;;;;;;;4996721;28;20391;-69
2022/12/17 14:53:44;;;;;;;32.28;9.20;;;;;;;;;;4997360;28;20018;-69
2022/12/17 14:56:20;;;;;;;38.80;12.25;;;;;;;;;;4996736;28;20018;-68
2022/12/17 14:58:45;;;;;;;19.98;7.53;;;;;;;;;;5003960;28;20014;-68
2022/12/17 15:01:11;;;;;;;39.28;14.65;;;;;;;;;;4997508;28;20080;-68
2022/12/17 15:03:41;;;;;;;34.78;13.90;;;;;;;;;;4997461;28;20434;-68
2022/12/17 15:06:07;;;;;;;36.08;12.60;;;;;;;;;;5000459;28;20058;-68
2022/12/17 15:08:34;;;;;;;36.50;14.50;;;;;;;;;;5004742;28;20101;-68
2022/12/17 15:10:59;;;;;;;26.23;11.48;;;;;;;;;;4998269;28;20060;-68
2022/12/17 15:13:24;;;;;;;39.13;15.40;;;;;;;;;;4999866;28;20368;-68
2022/12/17 15:15:49;;;;;;;42.47;15.10;;;;;;;;;;4998901;28;20029;-68
2022/12/17 15:18:15;;;;;;;40.28;15.88;;;;;;;;;;5000324;28;20018;-68
2022/12/17 15:20:40;;;;;;;41.78;16.73;;;;;;;;;;5005131;28;20030;-68
2022/12/17 15:23:08;;;;;;;40.22;14.27;;;;;;;;;;5001350;28;20020;-68
2022/12/17 15:25:33;;;;;;;33.35;13.63;;;;;;;;;;5006604;28;20018;-68
2022/12/17 15:27:59;;;;;;;42.45;15.95;;;;;;;;;;5005766;28;20084;-68
2022/12/17 15:30:24;;;;;;;48.75;18.27;;;;;;;;;;5000640;28;20022;-67
2022/12/17 15:32:49;;;;;;;55.83;19.08;;;;;;;;;;4996263;28;20153;-68
2022/12/17 15:35:15;;;;;;;48.90;18.45;;;;;;;;;;5003951;28;20089;-68
2022/12/17 15:37:40;;;;;;;46.95;19.00;;;;;;;;;;5000092;28;20407;-67
2022/12/17 15:40:05;;;;;;;43.75;16.80;;;;;;;;;;4997075;28;20080;-68
2022/12/17 15:45:14;;;;;;;40.80;16.42;;;;;;;;;;4998000;28;20029;-68
2022/12/17 15:47:39;;;;;;;45.00;17.17;;;;;;;;;;5020691;23;20050;-70
2022/12/17 15:50:05;;;;;;;38.55;15.43;;;;;;;;;;5009726;28;20097;-68
2022/12/17 15:52:30;;;;;;;42.85;16.48;;;;;;;;;;5009031;28;20022;-69
2022/12/17 15:54:55;;;;;;;44.33;17.40;;;;;;;;;;5009043;28;20014;-69
2022/12/17 15:57:21;;;;;;;44.97;16.98;;;;;;;;;;5009450;28;20338;-70
2022/12/17 15:59:46;;;;;;;45.28;17.85;;;;;;;;;;4993591;28;20015;-69
2022/12/17 16:02:11;;;;;;;47.17;17.73;;;;;;;;;;4992455;28;20503;-69
2022/12/17 16:04:36;;;;;;;43.15;17.38;;;;;;;;;;4987530;28;20034;-69
2022/12/17 16:07:02;;;;;;;49.45;17.52;;;;;;;;;;4993766;28;20105;-69
2022/12/17 16:09:27;;;;;;;52.45;17.42;;;;;;;;;;4993613;28;20379;-69
2022/12/17 16:11:53;;;;;;;55.95;20.88;;;;;;;;;;4992908;28;20029;-68
2022/12/17 16:14:18;;;;;;;58.75;22.48;;;;;;;;;;4992787;28;20010;-68
2022/12/17 16:16:44;;;;;;;48.05;20.55;;;;;;;;;;4995229;28;20057;-68
2022/12/17 16:19:09;;;;;;;64.78;22.88;;;;;;;;;;4994408;28;20467;-68
2022/12/17 16:21:34;;;;;;;60.13;22.40;;;;;;;;;;4991823;28;20047;-69
2022/12/17 16:23:59;;;;;;;67.80;24.45;;;;;;;;;;4993394;28;20031;-68
2022/12/17 16:26:25;;;;;;;74.07;26.10;;;;;;;;;;4994129;28;20490;-69
2022/12/17 16:28:50;;;;;;;64.25;23.73;;;;;;;;;;4991332;28;20030;-69
2022/12/17 16:31:15;;;;;;;58.65;23.23;;;;;;;;;;4993054;28;20032;-68
2022/12/17 16:33:41;;;;;;;56.13;23.02;;;;;;;;;;4992922;28;20026;-71
2022/12/17 16:36:07;;;;;;;54.05;22.25;;;;;;;;;;4991834;28;20029;-70
2022/12/17 16:38:33;;;;;;;52.20;19.33;;;;;;;;;;4992854;28;20034;-70
2022/12/17 16:40:59;;;;;;;54.83;22.77;;;;;;;;;;4990872;28;20372;-70
2022/12/17 16:43:25;;;;;;;51.28;19.23;;;;;;;;;;4993488;28;20030;-68
2022/12/17 16:45:51;;;;;;;43.42;19.23;;;;;;;;;;4991053;28;20026;-69
2022/12/17 16:48:18;;;;;;;48.13;18.90;;;;;;;;;;4992838;28;20045;-69
2022/12/17 16:50:43;;;;;;;50.63;18.17;;;;;;;;;;4993583;28;20040;-69
2022/12/17 16:53:08;;;;;;;58.55;20.63;;;;;;;;;;4993178;28;20569;-70
2022/12/17 16:55:38;;;;;;;49.08;18.98;;;;;;;;;;4992760;28;20052;-69
2022/12/17 16:58:03;;;;;;;52.58;20.83;;;;;;;;;;4991912;28;20032;-71
2022/12/17 17:00:28;;;;;;;45.85;19.13;;;;;;;;;;4993066;28;20018;-69
2022/12/17 17:02:54;;;;;;;57.65;23.23;;;;;;;;;;4992552;28;20537;-70
2022/12/17 17:05:19;;;;;;;50.85;21.50;;;;;;;;;;4993083;28;20048;-69
2022/12/17 17:07:44;;;;;;;62.03;22.15;;;;;;;;;;4992679;28;20061;-70
2022/12/17 17:10:09;;;;;;;48.28;17.83;;;;;;;;;;4992297;28;20553;-69
2022/12/17 17:12:35;;;;;;;46.58;19.02;;;;;;;;;;4991443;28;20022;-70
2022/12/17 17:15:00;;;;;;;57.38;19.50;;;;;;;;;;4992963;28;20398;-69
2022/12/17 17:17:25;;;;;;;56.17;19.05;;;;;;;;;;4992828;28;20022;-70
2022/12/17 17:19:50;;;;;;;50.92;20.95;;;;;;;;;;4992523;28;20022;-69
2022/12/17 17:22:16;;;;;;;56.30;21.65;;;;;;;;;;4992460;28;20379;-70
2022/12/17 17:24:41;;;;;;;61.28;23.77;;;;;;;;;;4992898;28;20054;-70
2022/12/17 17:27:06;;;;;;;60.97;24.17;;;;;;;;;;4991156;28;20022;-70
2022/12/17 17:29:31;;;;;;;69.63;26.60;;;;;;;;;;4991202;28;20035;-69
2022/12/17 17:31:56;;;;;;;62.33;26.33;;;;;;;;;;4992269;28;20039;-69
2022/12/17 17:34:21;;;;;;;62.83;23.88;;;;;;;;;;4992434;28;20014;-69
2022/12/17 17:36:47;;;;;;;58.42;24.08;;;;;;;;;;4992361;28;20145;-70
2022/12/17 17:39:12;;;;;;;64.47;23.83;;;;;;;;;;4992358;28;20181;-69
2022/12/17 17:41:37;;;;;;;66.32;23.60;;;;;;;;;;4992141;28;20474;-71
2022/12/17 17:44:03;;;;;;;57.75;22.40;;;;;;;;;;4990729;28;20084;-69
2022/12/17 17:46:29;;;;;;;70.75;24.63;;;;;;;;;;4990769;28;20020;-69
2022/12/17 17:48:55;;;;;;;72.78;26.65;;;;;;;;;;4992184;28;20030;-69
2022/12/17 17:51:22;;;;;;;70.50;25.15;;;;;;;;;;4992885;28;20073;-69
2022/12/17 17:53:48;;;;;;;61.13;21.98;;;;;;;;;;4992098;28;20064;-70
2022/12/17 17:56:15;;;;;;;52.08;20.55;;;;;;;;;;4991687;28;20073;-70
2022/12/17 17:58:42;;;;;;;58.60;21.88;;;;;;;;;;4991171;28;20045;-69
2022/12/17 18:01:10;;;;;;;66.20;24.38;;;;;;;;;;4991171;28;20022;-68
2022/12/17 18:03:36;;;;;;;68.97;25.73;;;;;;;;;;4990632;28;20061;-68
2022/12/17 18:06:02;;;;;;;67.80;25.05;;;;;;;;;;4992644;28;20022;-68
2022/12/17 18:08:28;;;;;;;66.50;26.98;;;;;;;;;;4991720;28;20014;-68
2022/12/17 18:10:54;;;;;;;78.30;29.88;;;;;;;;;;4991721;28;20022;-68
2022/12/17 18:16:03;;;;;;;67.28;28.98;;;;;;;;;;4991147;28;20438;-69
2022/12/17 18:18:28;;;;;;;69.22;27.67;;;;;;;;;;4991417;28;20014;-69
2022/12/17 18:21:01;;;;;;;78.20;31.58;;;;;;;;;;4990933;28;20044;-69
2022/12/17 18:23:26;;;;;;;81.88;31.17;;;;;;;;;;4992064;28;20018;-68
2022/12/17 18:25:51;;;;;;;83.40;32.20;;;;;;;;;;4992113;28;20022;-69
2022/12/17 18:28:16;;;;;;;81.03;31.33;;;;;;;;;;4991318;28;20030;-69
2022/12/17 18:30:41;;;;;;;77.57;29.25;;;;;;;;;;4990887;28;20022;-68
2022/12/17 18:33:06;;;;;;;87.07;30.15;;;;;;;;;;4990603;28;20034;-68
2022/12/17 18:35:32;;;;;;;81.72;28.08;;;;;;;;;;4995073;28;20145;-68
2022/12/17 18:37:57;;;;;;;75.43;27.73;;;;;;;;;;4989115;28;20030;-69
2022/12/17 18:40:22;;;;;;;77.53;28.83;;;;;;;;;;4989152;28;20057;-69
2022/12/17 18:45:36;;;;;;;75.72;28.08;;;;;;;;;;4990830;28;20452;-69
2022/12/17 18:48:02;;;;;;;74.25;27.83;;;;;;;;;;4990664;28;20050;-68
2022/12/17 18:50:27;;;;;;;89.82;31.92;;;;;;;;;;4994416;28;20467;-68
2022/12/17 18:52:52;;;;;;;67.82;26.27;;;;;;;;;;4989388;28;20022;-68
2022/12/17 18:55:17;;;;;;;78.15;27.90;;;;;;;;;;4992632;28;20029;-70
2022/12/17 18:57:43;;;;;;;88.80;32.90;;;;;;;;;;4991523;28;20101;-68
2022/12/17 19:00:08;;;;;;;78.20;30.60;;;;;;;;;;4993338;28;20629;-69
2022/12/17 19:02:33;;;;;;;85.97;28.48;;;;;;;;;;4989906;28;20117;-68
2022/12/17 19:04:59;;;;;;;93.65;30.55;;;;;;;;;;4990780;28;20487;-68
2022/12/17 19:07:24;;;;;;;90.28;33.10;;;;;;;;;;4989453;28;20029;-69
2022/12/17 19:09:49;;;;;;;85.18;31.90;;;;;;;;;;4987094;28;21237;-68
2022/12/17 19:12:14;;;;;;;70.35;29.77;;;;;;;;;;4989225;28;20121;-68
2022/12/17 19:14:39;;;;;;;79.40;28.60;;;;;;;;;;4993394;28;20037;-67
2022/12/17 19:17:05;;;;;;;77.68;29.13;;;;;;;;;;4990680;28;20467;-68
2022/12/17 19:19:30;;;;;;;83.45;30.73;;;;;;;;;;4990670;28;20379;-69
2022/12/17 19:21:58;;;;;;;91.40;32.53;;;;;;;;;;4990932;28;20057;-69
2022/12/17 19:24:23;;;;;;;89.50;35.35;;;;;;;;;;4989405;28;20026;-68
2022/12/17 19:26:49;;;;;;;86.38;33.42;;;;;;;;;;4989757;28;20113;-69
2022/12/17 19:29:14;;;;;;;92.70;33.05;;;;;;;;;;4990468;28;20446;-69
2022/12/17 19:31:40;;;;;;;91.57;33.65;;;;;;;;;;4993466;28;20547;-69
2022/12/17 19:34:06;;;;;;;93.97;34.72;;;;;;;;;;4990251;28;20026;-70
2022/12/17 19:36:32;;;;;;;94.22;38.30;;;;;;;;;;4990816;28;20021;-70
2022/12/17 19:38:58;;;;;;;91.60;35.28;;;;;;;;;;4990628;28;20093;-70
2022/12/17 19:41:24;;;;;;;95.50;35.35;;;;;;;;;;4989253;28;20027;-69
2022/12/17 19:43:56;;;;;;;93.35;36.97;;;;;;;;;;4993499;28;20093;-70
2022/12/17 19:46:22;;;;;;;94.88;36.15;;;;;;;;;;4988723;28;20026;-70
2022/12/17 19:48:47;;;;;;;101.90;35.58;;;;;;;;;;4993438;28;20122;-68
2022/12/17 19:51:13;;;;;;;84.30;33.78;;;;;;;;;;4990295;28;20018;-68
2022/12/17 19:53:40;;;;;;;91.68;32.85;;;;;;;;;;4990825;28;20502;-68
2022/12/17 19:56:12;;;;;;;75.15;29.70;;;;;;;;;;4989586;28;20391;-68
2022/12/17 19:58:41;;;;;;;73.93;25.42;;;;;;;;;;4990636;28;20526;-68
2022/12/17 20:01:07;;;;;;;76.25;25.33;;;;;;;;;;4990591;28;20022;-69
2022/12/17 20:03:33;;;;;;;91.70;29.67;;;;;;;;;;4988518;28;20053;-69
2022/12/17 20:05:58;;;;;;;64.63;24.15;;;;;;;;;;4991664;28;20470;-68
2022/12/17 20:08:23;;;;;;;68.00;22.83;;;;;;;;;;4989290;28;20631;-68
2022/12/17 20:10:48;;;;;;;64.47;25.15;;;;;;;;;;4989385;28;20023;-71
2022/12/17 20:13:13;;;;;;;60.28;23.17;;;;;;;;;;4990031;28;20101;-69
2022/12/17 20:15:38;;;;;;;56.75;19.17;;;;;;;;;;4990416;28;20019;-68
2022/12/17 20:18:04;;;;;;;52.35;19.10;;;;;;;;;;4990166;28;20026;-69
2022/12/17 20:20:29;;;;;;;53.30;20.13;;;;;;;;;;4990298;28;20018;-68
2022/12/17 20:22:54;;;;;;;46.78;18.02;;;;;;;;;;4989901;28;20034;-68
2022/12/17 20:25:19;;;;;;;61.60;20.25;;;;;;;;;;4990408;28;20463;-68
2022/12/17 20:27:44;;;;;;;55.35;20.52;;;;;;;;;;4992236;28;20101;-68
2022/12/17 20:30:10;;;;;;;56.10;20.48;;;;;;;;;;4990166;28;20101;-69
2022/12/17 20:32:36;;;;;;;64.60;21.02;;;;;;;;;;4990117;28;20022;-70
2022/12/17 20:35:01;;;;;;;55.35;21.60;;;;;;;;;;4990382;28;20044;-70
2022/12/17 20:37:26;;;;;;;55.95;21.63;;;;;;;;;;4989128;28;20102;-69
2022/12/17 20:39:51;;;;;;;61.25;21.33;;;;;;;;;;4990772;28;20026;-69
2022/12/17 20:42:17;;;;;;;53.42;19.50;;;;;;;;;;4989881;28;20036;-69
2022/12/17 20:44:42;;;;;;;49.90;17.95;;;;;;;;;;4992666;28;20387;-68
2022/12/17 20:47:07;;;;;;;47.45;19.92;;;;;;;;;;4993739;28;20026;-71
2022/12/17 20:49:32;;;;;;;51.00;17.95;;;;;;;;;;4993604;28;20642;-68
2022/12/17 20:51:58;;;;;;;48.65;18.67;;;;;;;;;;4992192;28;20035;-71
2022/12/17 20:54:23;;;;;;;54.30;21.45;;;;;;;;;;4993816;28;20086;-68
2022/12/17 20:56:49;;;;;;;55.78;21.27;;;;;;;;;;4996617;28;20483;-71
2022/12/17 20:59:15;;;;;;;64.30;22.13;;;;;;;;;;4993364;28;20535;-69
2022/12/17 21:01:40;;;;;;;57.42;22.13;;;;;;;;;;4991070;28;20550;-69
2022/12/17 21:04:06;;;;;;;52.05;19.88;;;;;;;;;;4992253;28;20031;-68
2022/12/17 21:06:42;;;;;;;56.58;20.38;;;;;;;;;;4993383;28;20042;-68
2022/12/17 21:09:07;;;;;;;56.78;20.60;;;;;;;;;;4992472;28;20507;-68
2022/12/17 21:11:33;;;;;;;60.08;22.33;;;;;;;;;;4992354;28;20054;-70
2022/12/17 21:14:01;;;;;;;70.30;26.38;;;;;;;;;;4992122;28;20109;-69
2022/12/17 21:16:27;;;;;;;77.30;29.25;;;;;;;;;;4993168;28;20053;-68
2022/12/17 21:18:53;;;;;;;64.97;27.67;;;;;;;;;;4993223;28;20368;-69
2022/12/17 21:21:21;;;;;;;85.93;29.45;;;;;;;;;;4992851;28;20077;-69
2022/12/17 21:23:47;;;;;;;81.50;28.05;;;;;;;;;;4990762;28;20046;-69
2022/12/17 21:26:13;;;;;;;80.50;28.63;;;;;;;;;;4992802;28;20050;-70
2022/12/17 21:28:40;;;;;;;78.65;31.50;;;;;;;;;;4992984;28;20018;-68
2022/12/17 21:31:12;;;;;;;82.95;26.67;;;;;;;;;;4997269;28;20117;-69
2022/12/17 21:33:38;;;;;;;87.55;29.83;;;;;;;;;;4992945;28;20033;-68
2022/12/17 21:36:04;;;;;;;79.53;29.42;;;;;;;;;;4992619;28;20030;-68
2022/12/17 21:38:30;;;;;;;71.40;26.70;;;;;;;;;;4991637;28;20026;-69
2022/12/17 21:40:56;;;;;;;81.07;31.88;;;;;;;;;;4992361;28;20073;-68
2022/12/17 21:43:21;;;;;;;86.88;31.80;;;;;;;;;;4990333;28;20069;-68
2022/12/17 21:45:46;;;;;;;85.80;30.27;;;;;;;;;;4993004;28;20022;-68
2022/12/17 21:48:12;;;;;;;73.65;29.25;;;;;;;;;;5019965;23;20042;-68
2022/12/17 21:50:43;;;;;;;68.93;27.83;;;;;;;;;;5015775;28;20096;-69
2022/12/17 21:53:09;;;;;;;86.30;30.17;;;;;;;;;;5014738;28;20116;-68
2022/12/17 21:55:34;;;;;;;80.85;29.15;;;;;;;;;;5011986;28;20436;-68
2022/12/17 21:58:00;;;;;;;94.28;30.80;;;;;;;;;;5005292;28;20037;-71
2022/12/17 22:00:25;;;;;;;90.70;31.05;;;;;;;;;;4989282;28;20041;-68
2022/12/17 22:02:50;;;;;;;120.78;36.50;;;;;;;;;;4992208;28;20065;-68
2022/12/17 22:05:15;;;;;;;118.20;37.28;;;;;;;;;;4994595;28;20071;-68
2022/12/17 22:07:40;;;;;;;113.22;33.88;;;;;;;;;;4992247;28;20471;-68
2022/12/17 22:10:06;;;;;;;92.22;31.45;;;;;;;;;;4991636;28;20101;-68
2022/12/17 22:15:15;;;;;;;115.88;35.63;;;;;;;;;;4989525;28;20080;-68
2022/12/17 22:17:41;;;;;;;88.22;31.52;;;;;;;;;;4993421;28;20019;-68
2022/12/17 22:20:06;;;;;;;85.53;29.73;;;;;;;;;;4989554;28;20033;-68
2022/12/17 22:22:32;;;;;;;75.35;25.95;;;;;;;;;;4993174;28;20056;-68
2022/12/17 22:24:57;;;;;;;47.17;19.92;;;;;;;;;;4992092;28;20156;-68
2022/12/17 22:27:22;;;;;;;62.95;22.23;;;;;;;;;;4993327;28;20034;-68
2022/12/17 22:35:16;;;;;;;55.30;20.40;;;;;;;;;;4988946;28;20029;-68
2022/12/17 22:37:41;;;;;;;42.42;18.27;;;;;;;;;;4991765;28;20018;-68
2022/12/17 22:40:06;;;;;;;52.80;19.45;;;;;;;;;;4992367;28;20402;-68
2022/12/17 22:45:15;;;;;;;61.38;19.65;;;;;;;;;;4990058;28;20042;-68
2022/12/17 22:47:41;;;;;;;51.10;19.67;;;;;;;;;;4991677;28;20022;-69
2022/12/17 22:50:06;;;;;;;54.80;18.38;;;;;;;;;;4991673;28;20064;-68
2022/12/17 22:52:31;;;;;;;42.25;16.88;;;;;;;;;;4990189;28;20033;-69
2022/12/17 22:54:56;;;;;;;41.33;14.95;;;;;;;;;;4991955;28;20026;-68
2022/12/17 22:57:21;;;;;;;42.63;14.55;;;;;;;;;;4992843;28;20026;-68
2022/12/17 22:59:47;;;;;;;39.80;15.00;;;;;;;;;;4990681;28;20018;-68
2022/12/17 23:02:12;;;;;;;38.80;15.07;;;;;;;;;;4988747;28;20018;-68
2022/12/17 23:04:37;;;;;;;40.85;14.73;;;;;;;;;;4987941;28;20022;-69
2022/12/17 23:07:02;;;;;;;31.48;12.50;;;;;;;;;;4984791;28;20030;-68
2022/12/17 23:09:27;;;;;;;35.38;12.35;;;;;;;;;;4988087;28;20076;-68
2022/12/17 23:11:52;;;;;;;25.95;9.00;;;;;;;;;;4987678;28;20050;-68
2022/12/17 23:14:18;;;;;;;27.58;10.65;;;;;;;;;;4991550;28;20065;-68
2022/12/17 23:16:43;;;;;;;35.22;12.07;;;;;;;;;;4990061;28;20456;-68
2022/12/17 23:19:09;;;;;;;32.17;10.95;;;;;;;;;;4989134;28;20018;-68
2022/12/17 23:21:34;;;;;;;37.15;12.07;;;;;;;;;;4990316;28;20045;-68
2022/12/17 23:24:00;;;;;;;30.17;9.93;;;;;;;;;;4987630;28;20110;-68
2022/12/17 23:26:27;;;;;;;25.80;11.93;;;;;;;;;;4990922;28;20022;-68
2022/12/17 23:28:57;;;;;;;21.00;9.05;;;;;;;;;;4989999;28;20459;-68
2022/12/17 23:31:23;;;;;;;31.00;11.63;;;;;;;;;;4990159;28;20482;-68
2022/12/17 23:33:48;;;;;;;32.28;11.50;;;;;;;;;;4989564;28;20208;-68
2022/12/17 23:36:15;;;;;;;29.95;11.50;;;;;;;;;;4990294;28;20021;-69
2022/12/17 23:38:40;;;;;;;28.85;10.70;;;;;;;;;;4988963;28;20022;-68
2022/12/17 23:41:07;;;;;;;23.65;9.90;;;;;;;;;;4989290;28;20485;-68
2022/12/17 23:43:32;;;;;;;11.15;4.00;;;;;;;;;;4989988;28;20038;-68
2022/12/17 23:45:58;;;;;;;27.52;9.98;;;;;;;;;;4990269;28;20022;-68
2022/12/17 23:48:23;;;;;;;18.20;5.32;;;;;;;;;;4954076;28;1048464;-69
2022/12/17 23:50:48;;;;;;;19.00;7.18;;;;;;;;;;4990525;28;20027;-68
2022/12/17 23:53:14;;;;;;;24.67;9.30;;;;;;;;;;4989046;28;20137;-68
2022/12/17 23:55:39;;;;;;;23.98;10.38;;;;;;;;;;4989539;28;20190;-68
2022/12/17 23:58:04;;;;;;;25.15;9.88;;;;;;;;;;4990531;28;20378;-68
